createdAt,value
2018-08-17T00:01:26.595Z,2.10
2018-08-17T00:03:55.206Z,2.03
2018-08-17T00:06:22.407Z,2.60
2018-08-17T00:08:49.665Z,2.07
2018-08-17T00:11:16.861Z,2.23
2018-08-17T00:13:44.430Z,2.30
2018-08-17T00:16:11.658Z,2.50
2018-08-17T00:21:29.106Z,3.50
2018-08-17T00:23:56.375Z,3.20
2018-08-17T00:26:23.594Z,4.03
2018-08-17T00:28:51.162Z,3.30
2018-08-17T00:31:18.346Z,3.80
2018-08-17T00:33:45.603Z,4.10
2018-08-17T00:36:12.800Z,4.47
2018-08-17T00:38:40.093Z,4.53
2018-08-17T00:41:07.320Z,4.63
2018-08-17T00:43:34.575Z,4.30
2018-08-17T00:46:01.800Z,3.77
2018-08-17T00:48:29.023Z,3.43
2018-08-17T00:50:56.254Z,3.70
2018-08-17T00:53:23.484Z,3.40
2018-08-17T00:55:50.703Z,3.27
2018-08-17T00:58:17.935Z,3.50
2018-08-17T01:00:45.206Z,3.20
2018-08-17T01:03:12.496Z,3.50
2018-08-17T01:05:39.703Z,4.27
2018-08-17T01:08:07.318Z,5.03
2018-08-17T01:10:34.560Z,4.60
2018-08-17T01:13:01.795Z,4.00
2018-08-17T01:15:29.047Z,4.07
2018-08-17T01:17:56.382Z,4.10
2018-08-17T01:20:23.618Z,3.97
2018-08-17T01:22:50.814Z,4.47
2018-08-17T01:25:18.066Z,4.27
2018-08-17T01:27:45.280Z,3.70
2018-08-17T01:30:12.542Z,4.23
2018-08-17T01:32:39.718Z,4.47
2018-08-17T01:35:07.205Z,4.23
2018-08-17T01:37:34.409Z,3.40
2018-08-17T01:40:01.668Z,3.97
2018-08-17T01:42:28.880Z,3.50
2018-08-17T01:44:56.126Z,3.13
2018-08-17T01:47:23.394Z,3.53
2018-08-17T01:49:50.611Z,3.00
2018-08-17T01:52:17.807Z,3.13
2018-08-17T01:54:45.065Z,2.80
2018-08-17T01:57:12.306Z,2.73
2018-08-17T01:59:39.522Z,2.83
2018-08-17T02:02:06.787Z,2.60
2018-08-17T02:04:34.014Z,2.30
2018-08-17T02:07:01.214Z,2.40
2018-08-17T02:09:28.450Z,2.30
2018-08-17T02:11:55.679Z,2.17
2018-08-17T02:14:22.902Z,2.50
2018-08-17T02:16:50.151Z,2.40
2018-08-17T02:19:18.629Z,2.53
2018-08-17T02:21:45.834Z,2.40
2018-08-17T02:24:13.126Z,2.43
2018-08-17T02:26:40.330Z,2.30
2018-08-17T02:29:07.560Z,1.90
2018-08-17T02:31:34.774Z,2.30
2018-08-17T02:34:02.011Z,2.23
2018-08-17T02:36:29.226Z,2.40
2018-08-17T02:38:56.498Z,2.53
2018-08-17T02:41:23.716Z,2.43
2018-08-17T02:43:50.952Z,2.43
2018-08-17T02:46:18.172Z,2.20
2018-08-17T02:48:45.383Z,2.00
2018-08-17T02:51:12.655Z,2.30
2018-08-17T02:53:40.855Z,2.13
2018-08-17T02:56:08.106Z,2.50
2018-08-17T02:58:35.346Z,2.30
2018-08-17T03:01:02.770Z,2.20
2018-08-17T03:03:30.030Z,2.40
2018-08-17T03:05:57.279Z,2.33
2018-08-17T03:08:24.475Z,2.00
2018-08-17T03:10:51.696Z,2.30
2018-08-17T03:13:18.922Z,2.23
2018-08-17T03:15:46.202Z,2.50
2018-08-17T03:18:14.448Z,2.47
2018-08-17T03:20:42.823Z,2.33
2018-08-17T03:23:10.901Z,2.50
2018-08-17T03:25:38.122Z,2.63
2018-08-17T03:28:05.730Z,2.70
2018-08-17T03:30:32.954Z,2.50
2018-08-17T03:33:00.178Z,2.83
2018-08-17T03:35:27.450Z,2.37
2018-08-17T03:37:54.659Z,2.90
2018-08-17T03:40:21.918Z,2.97
2018-08-17T03:42:49.327Z,2.60
2018-08-17T03:45:16.535Z,2.27
2018-08-17T03:47:43.743Z,2.77
2018-08-17T03:50:10.990Z,2.40
2018-08-17T03:52:38.194Z,2.43
2018-08-17T03:55:05.543Z,2.63
2018-08-17T03:57:32.743Z,2.50
2018-08-17T04:00:00.128Z,2.47
2018-08-17T04:02:27.371Z,2.50
2018-08-17T04:04:54.641Z,2.23
2018-08-17T04:07:21.944Z,2.23
2018-08-17T04:09:49.225Z,2.60
2018-08-17T04:12:16.422Z,2.30
2018-08-17T04:14:43.626Z,2.30
2018-08-17T04:17:10.867Z,2.60
2018-08-17T04:19:38.075Z,2.43
2018-08-17T04:22:05.318Z,2.47
2018-08-17T04:24:32.542Z,2.20
2018-08-17T04:26:59.770Z,2.17
2018-08-17T04:29:26.988Z,2.17
2018-08-17T04:31:54.222Z,2.80
2018-08-17T04:34:21.439Z,2.30
2018-08-17T04:36:48.771Z,2.90
2018-08-17T04:39:15.975Z,2.30
2018-08-17T04:41:43.211Z,1.97
2018-08-17T04:44:10.443Z,2.10
2018-08-17T04:46:37.675Z,3.03
2018-08-17T04:49:04.898Z,3.10
2018-08-17T04:51:32.150Z,3.17
2018-08-17T04:53:59.383Z,3.47
2018-08-17T04:56:26.611Z,2.77
2018-08-17T04:58:53.835Z,2.80
2018-08-17T05:01:21.055Z,2.90
2018-08-17T05:03:48.252Z,2.57
2018-08-17T05:06:15.509Z,3.00
2018-08-17T05:08:43.284Z,3.10
2018-08-17T05:11:10.515Z,3.20
2018-08-17T05:13:37.739Z,2.87
2018-08-17T05:16:05.170Z,2.50
2018-08-17T05:18:32.385Z,2.77
2018-08-17T05:20:59.614Z,2.47
2018-08-17T05:23:26.961Z,2.30
2018-08-17T05:25:54.208Z,2.37
2018-08-17T05:28:21.413Z,2.33
2018-08-17T05:30:48.622Z,3.40
2018-08-17T05:33:15.843Z,2.53
2018-08-17T05:35:43.070Z,2.60
2018-08-17T05:38:10.274Z,2.67
2018-08-17T05:40:37.485Z,2.50
2018-08-17T05:43:04.755Z,2.93
2018-08-17T05:45:32.041Z,3.17
2018-08-17T05:47:59.282Z,2.50
2018-08-17T05:50:26.539Z,2.80
2018-08-17T05:52:53.783Z,2.53
2018-08-17T05:55:21.019Z,2.87
2018-08-17T05:57:48.295Z,2.90
2018-08-17T06:00:15.532Z,3.30
2018-08-17T06:02:42.823Z,3.70
2018-08-17T06:05:10.663Z,3.37
2018-08-17T06:07:38.178Z,2.97
2018-08-17T06:10:07.139Z,4.07
2018-08-17T06:12:34.379Z,3.80
2018-08-17T06:15:01.591Z,2.90
2018-08-17T06:17:28.910Z,3.83
2018-08-17T06:19:56.183Z,3.93
2018-08-17T06:22:23.473Z,4.30
2018-08-17T06:24:51.575Z,3.80
2018-08-17T06:27:19.168Z,4.92
2018-08-17T06:29:46.403Z,4.50
2018-08-17T06:32:13.675Z,5.58
2018-08-17T06:34:40.900Z,4.95
2018-08-17T06:37:08.745Z,4.55
2018-08-17T06:39:35.952Z,4.72
2018-08-17T06:42:03.252Z,4.62
2018-08-17T06:44:30.477Z,5.85
2018-08-17T06:46:57.786Z,5.67
2018-08-17T06:49:25.057Z,4.80
2018-08-17T06:51:52.295Z,3.42
2018-08-17T06:54:19.581Z,3.15
2018-08-17T06:56:46.842Z,3.27
2018-08-17T06:59:14.068Z,2.65
2018-08-17T07:01:41.348Z,2.70
2018-08-17T07:04:08.588Z,2.95
2018-08-17T07:06:35.829Z,3.37
2018-08-17T07:09:04.519Z,3.95
2018-08-17T07:11:31.747Z,3.25
2018-08-17T07:13:59.006Z,4.75
2018-08-17T07:16:26.272Z,5.25
2018-08-17T07:18:53.518Z,4.90
2018-08-17T07:21:20.886Z,4.65
2018-08-17T07:23:49.906Z,3.33
2018-08-17T07:26:17.115Z,3.67
2018-08-17T07:28:44.379Z,3.83
2018-08-17T07:31:11.583Z,3.33
2018-08-17T07:33:38.907Z,3.17
2018-08-17T07:36:06.291Z,3.45
2018-08-17T07:38:33.605Z,3.47
2018-08-17T07:41:00.812Z,3.50
2018-08-17T07:43:28.079Z,3.50
2018-08-17T07:45:55.385Z,3.17
2018-08-17T07:48:22.741Z,3.37
2018-08-17T07:50:49.920Z,3.45
2018-08-17T07:53:17.188Z,3.70
2018-08-17T07:55:44.466Z,3.65
2018-08-17T07:58:11.723Z,3.65
2018-08-17T08:00:38.946Z,2.85
2018-08-17T08:03:06.194Z,3.65
2018-08-17T08:05:33.489Z,3.65
2018-08-17T08:08:00.727Z,3.58
2018-08-17T08:10:28.012Z,4.10
2018-08-17T08:12:55.282Z,3.67
2018-08-17T08:15:22.543Z,3.47
2018-08-17T08:17:49.783Z,3.40
2018-08-17T08:20:27.286Z,2.95
2018-08-17T08:23:05.911Z,3.65
2018-08-17T08:25:33.336Z,2.80
2018-08-17T08:28:00.736Z,3.30
2018-08-17T08:30:28.168Z,3.70
2018-08-17T08:32:55.450Z,4.50
2018-08-17T08:35:22.722Z,3.40
2018-08-17T08:37:50.113Z,3.42
2018-08-17T08:40:17.499Z,3.12
2018-08-17T08:42:44.823Z,3.77
2018-08-17T08:45:12.173Z,3.40
2018-08-17T08:47:39.455Z,3.60
2018-08-17T08:50:07.183Z,3.12
2018-08-17T08:52:45.293Z,3.75
2018-08-17T08:55:12.607Z,3.77
2018-08-17T08:57:39.922Z,4.65
2018-08-17T09:00:08.126Z,3.12
2018-08-17T09:02:35.455Z,3.20
2018-08-17T09:05:02.811Z,3.70
2018-08-17T09:07:30.071Z,3.27
2018-08-17T09:09:57.381Z,3.20
2018-08-17T09:12:24.646Z,3.17
2018-08-17T09:14:51.970Z,3.30
2018-08-17T09:17:19.415Z,3.27
2018-08-17T09:19:46.718Z,2.55
2018-08-17T09:22:14.551Z,2.95
2018-08-17T09:24:41.810Z,3.52
2018-08-17T09:27:09.064Z,3.02
2018-08-17T09:29:36.452Z,2.80
2018-08-17T09:32:03.749Z,2.47
2018-08-17T09:34:31.039Z,2.85
2018-08-17T09:36:58.319Z,2.77
2018-08-17T09:39:25.863Z,2.85
2018-08-17T09:41:53.167Z,3.37
2018-08-17T09:44:20.536Z,3.87
2018-08-17T09:46:47.796Z,2.83
2018-08-17T09:49:16.752Z,3.40
2018-08-17T09:51:44.020Z,2.72
2018-08-17T09:54:11.312Z,3.30
2018-08-17T09:56:38.587Z,2.98
2018-08-17T09:59:06.122Z,2.83
2018-08-17T10:01:38.926Z,3.52
2018-08-17T10:04:12.023Z,3.62
2018-08-17T10:06:44.878Z,2.70
2018-08-17T10:09:18.973Z,3.50
2018-08-17T10:11:47.823Z,3.33
2018-08-17T10:14:15.091Z,3.40
2018-08-17T10:16:42.660Z,3.50
2018-08-17T10:19:10.012Z,3.30
2018-08-17T10:21:44.325Z,3.33
2018-08-17T10:24:11.268Z,3.02
2018-08-17T10:26:39.051Z,3.10
2018-08-17T10:29:06.323Z,3.10
2018-08-17T10:31:33.536Z,2.83
2018-08-17T10:34:00.957Z,2.98
2018-08-17T10:36:28.242Z,3.20
2018-08-17T10:38:55.498Z,2.65
2018-08-17T10:41:25.995Z,3.00
2018-08-17T10:43:53.215Z,2.95
2018-08-17T10:46:20.601Z,3.45
2018-08-17T10:48:47.889Z,2.98
2018-08-17T10:51:15.092Z,3.40
2018-08-17T10:53:43.646Z,3.27
2018-08-17T10:56:10.891Z,3.70
2018-08-17T10:58:38.119Z,3.40
2018-08-17T11:01:05.522Z,3.40
2018-08-17T11:03:32.778Z,3.12
2018-08-17T11:06:00.038Z,3.72
2018-08-17T11:08:28.495Z,3.45
2018-08-17T11:10:55.774Z,3.50
2018-08-17T11:13:23.038Z,3.83
2018-08-17T11:15:50.272Z,3.17
2018-08-17T11:18:18.094Z,3.15
2018-08-17T11:20:45.348Z,3.27
2018-08-17T11:23:12.573Z,3.27
2018-08-17T11:25:39.818Z,3.70
2018-08-17T11:28:07.059Z,3.25
2018-08-17T11:30:34.328Z,3.27
2018-08-17T11:33:01.555Z,2.70
2018-08-17T11:35:28.844Z,3.12
2018-08-17T11:37:56.098Z,3.10
2018-08-17T11:40:23.331Z,2.98
2018-08-17T11:42:50.903Z,4.22
2018-08-17T11:45:19.499Z,3.10
2018-08-17T11:47:47.312Z,2.85
2018-08-17T11:50:17.058Z,2.87
2018-08-17T11:52:51.048Z,2.67
2018-08-17T11:55:18.727Z,3.52
2018-08-17T11:57:45.982Z,3.50
2018-08-17T12:00:13.279Z,3.45
2018-08-17T12:02:40.502Z,3.27
2018-08-17T12:05:08.330Z,3.47
2018-08-17T12:07:35.532Z,3.50
2018-08-17T12:10:03.755Z,3.12
2018-08-17T12:12:33.049Z,4.03
2018-08-17T12:15:00.339Z,3.70
2018-08-17T12:17:27.595Z,3.50
2018-08-17T12:19:54.840Z,3.30
2018-08-17T12:22:22.100Z,4.35
2018-08-17T12:24:50.804Z,3.10
2018-08-17T12:27:18.064Z,3.12
2018-08-17T12:29:45.391Z,3.27
2018-08-17T12:32:12.783Z,3.15
2018-08-17T12:34:39.990Z,3.08
2018-08-17T12:37:07.233Z,2.95
2018-08-17T12:39:34.498Z,2.72
2018-08-17T12:42:02.025Z,3.58
2018-08-17T12:44:29.326Z,3.62
2018-08-17T12:46:56.804Z,3.83
2018-08-17T12:49:24.409Z,3.42
2018-08-17T12:51:51.646Z,3.27
2018-08-17T12:54:24.443Z,3.45
2018-08-17T12:56:52.017Z,3.40
2018-08-17T12:59:19.250Z,3.33
2018-08-17T13:01:46.651Z,3.47
2018-08-17T13:04:13.887Z,3.92
2018-08-17T13:06:41.151Z,4.50
2018-08-17T13:09:08.400Z,3.20
2018-08-17T13:11:40.381Z,3.35
2018-08-17T13:14:11.158Z,3.33
2018-08-17T13:16:39.695Z,3.08
2018-08-17T13:19:07.508Z,3.25
2018-08-17T13:21:34.885Z,3.17
2018-08-17T13:24:02.117Z,2.90
2018-08-17T13:26:29.363Z,3.95
2018-08-17T13:28:56.579Z,3.50
2018-08-17T13:31:23.838Z,3.45
2018-08-17T13:33:51.051Z,3.47
2018-08-17T13:36:18.343Z,3.52
2018-08-17T13:38:45.563Z,3.37
2018-08-17T13:41:12.826Z,3.52
2018-08-17T13:43:40.060Z,3.33
2018-08-17T13:46:07.440Z,3.08
2018-08-17T13:48:35.682Z,3.35
2018-08-17T13:51:03.002Z,3.20
2018-08-17T13:53:30.238Z,3.40
2018-08-17T13:55:57.502Z,3.30
2018-08-17T13:58:24.820Z,3.55
2018-08-17T14:00:52.114Z,3.47
2018-08-17T14:03:19.381Z,3.80
2018-08-17T14:05:46.599Z,3.35
2018-08-17T14:08:13.865Z,5.40
2018-08-17T14:10:41.116Z,10.23
2018-08-17T14:13:08.580Z,3.80
2018-08-17T14:15:35.905Z,2.85
2018-08-17T14:18:04.711Z,3.30
2018-08-17T14:20:31.954Z,3.02
2018-08-17T14:22:59.244Z,2.85
2018-08-17T14:25:26.498Z,2.85
2018-08-17T14:27:53.740Z,2.90
2018-08-17T14:30:20.978Z,3.62
2018-08-17T14:32:48.216Z,3.62
2018-08-17T14:35:15.596Z,3.05
2018-08-17T14:37:43.060Z,3.47
2018-08-17T14:40:10.654Z,3.08
2018-08-17T14:42:38.094Z,2.72
2018-08-17T14:45:06.320Z,3.37
2018-08-17T14:47:33.704Z,3.55
2018-08-17T14:50:00.964Z,3.47
2018-08-17T14:52:28.215Z,3.58
2018-08-17T14:54:55.429Z,3.08
2018-08-17T14:57:22.723Z,3.67
2018-08-17T14:59:49.948Z,4.03
2018-08-17T15:02:17.279Z,3.98
2018-08-17T15:04:44.497Z,3.37
2018-08-17T15:07:11.793Z,3.70
2018-08-17T15:09:39.026Z,3.62
2018-08-17T15:12:06.301Z,4.25
2018-08-17T15:14:33.522Z,4.15
2018-08-17T15:17:00.744Z,3.55
2018-08-17T15:19:27.987Z,3.72
2018-08-17T15:21:55.219Z,3.75
2018-08-17T15:24:22.558Z,3.80
2018-08-17T15:26:49.889Z,3.52
2018-08-17T15:29:17.176Z,3.60
2018-08-17T15:31:44.504Z,3.70
2018-08-17T15:34:11.782Z,4.53
2018-08-17T15:36:39.071Z,4.12
2018-08-17T15:39:06.901Z,4.55
2018-08-17T15:41:41.230Z,4.55
2018-08-17T15:44:13.090Z,3.45
2018-08-17T15:46:40.410Z,3.75
2018-08-17T15:49:08.513Z,3.80
2018-08-17T15:51:35.711Z,3.75
2018-08-17T15:54:03.276Z,3.55
2018-08-17T15:56:30.561Z,3.70
2018-08-17T15:58:57.860Z,4.10
2018-08-17T16:01:25.169Z,3.80
2018-08-17T16:03:52.401Z,3.87
2018-08-17T16:06:19.641Z,3.47
2018-08-17T16:08:46.886Z,3.12
2018-08-17T16:11:14.104Z,3.77
2018-08-17T16:13:41.404Z,3.25
2018-08-17T16:16:08.704Z,3.22
2018-08-17T16:18:35.927Z,3.42
2018-08-17T16:21:03.187Z,3.70
2018-08-17T16:23:30.498Z,3.67
2018-08-17T16:25:57.801Z,3.47
2018-08-17T16:28:25.026Z,4.25
2018-08-17T16:30:52.235Z,6.37
2018-08-17T16:33:20.717Z,5.60
2018-08-17T16:35:48.022Z,5.25
2018-08-17T16:38:15.280Z,5.55
2018-08-17T16:40:47.151Z,5.60
2018-08-17T16:43:15.559Z,5.90
2018-08-17T16:45:42.810Z,5.70
2018-08-17T16:48:10.093Z,5.53
2018-08-17T16:50:37.408Z,6.25
2018-08-17T16:53:04.771Z,6.45
2018-08-17T16:55:32.014Z,6.22
2018-08-17T16:57:59.281Z,6.55
2018-08-17T17:00:26.773Z,6.72
2018-08-17T17:02:53.918Z,6.35
2018-08-17T17:05:21.171Z,6.50
2018-08-17T17:07:48.370Z,6.35
2018-08-17T17:10:15.653Z,6.20
2018-08-17T17:12:42.900Z,6.05
2018-08-17T17:15:15.911Z,6.05
2018-08-17T17:17:50.506Z,5.87
2018-08-17T17:20:17.751Z,5.80
2018-08-17T17:22:45.068Z,6.10
2018-08-17T17:25:17.418Z,5.50
2018-08-17T17:27:45.058Z,6.12
2018-08-17T17:30:12.404Z,6.62
2018-08-17T17:32:39.714Z,5.83
2018-08-17T17:35:07.300Z,5.75
2018-08-17T17:37:34.719Z,5.58
2018-08-17T17:40:02.096Z,6.10
2018-08-17T17:42:29.392Z,5.62
2018-08-17T17:44:56.859Z,5.47
2018-08-17T17:47:24.909Z,4.75
2018-08-17T17:49:52.190Z,4.75
2018-08-17T17:52:19.481Z,5.42
2018-08-17T17:54:46.768Z,2.87
2018-08-17T17:57:14.050Z,1.70
2018-08-17T17:59:47.786Z,2.27
2018-08-17T18:02:15.919Z,1.90
2018-08-17T18:04:43.854Z,2.17
2018-08-17T18:07:13.777Z,2.13
2018-08-17T18:09:41.083Z,1.70
2018-08-17T18:12:08.514Z,2.60
2018-08-17T18:14:35.799Z,2.50
2018-08-17T18:17:03.107Z,3.70
2018-08-17T18:19:30.492Z,4.03
2018-08-17T18:21:58.455Z,3.70
2018-08-17T18:24:26.524Z,4.23
2018-08-17T18:26:53.751Z,4.63
2018-08-17T18:29:21.029Z,5.93
2018-08-17T18:31:48.305Z,5.57
2018-08-17T18:34:15.923Z,5.87
2018-08-17T18:36:43.309Z,6.40
2018-08-17T18:39:13.091Z,6.13
2018-08-17T18:41:40.549Z,6.27
2018-08-17T18:44:07.910Z,6.27
2018-08-17T18:46:35.757Z,5.93
2018-08-17T18:49:03.188Z,6.40
2018-08-17T18:51:30.496Z,5.70
2018-08-17T18:53:57.876Z,5.97
2018-08-17T18:56:25.200Z,6.47
2018-08-17T18:58:52.513Z,6.50
2018-08-17T19:01:19.956Z,6.43
2018-08-17T19:03:47.304Z,5.87
2018-08-17T19:06:14.672Z,6.73
2018-08-17T19:08:42.754Z,7.13
2018-08-17T19:11:10.217Z,7.60
2018-08-17T19:13:37.516Z,6.70
2018-08-17T19:16:05.003Z,5.63
2018-08-17T19:18:32.825Z,5.83
2018-08-17T19:21:03.412Z,6.20
2018-08-17T19:23:30.752Z,5.60
2018-08-17T19:25:58.044Z,6.23
2018-08-17T19:28:25.292Z,5.53
2018-08-17T19:30:52.588Z,4.50
2018-08-17T19:33:20.190Z,4.47
2018-08-17T19:35:47.949Z,4.77
2018-08-17T19:38:15.297Z,4.40
2018-08-17T19:40:42.628Z,4.73
2018-08-17T19:43:10.601Z,4.97
2018-08-17T19:45:38.033Z,5.07
2018-08-17T19:48:05.578Z,5.10
2018-08-17T19:50:32.995Z,4.67
2018-08-17T19:53:01.227Z,4.80
2018-08-17T19:55:28.510Z,4.97
2018-08-17T19:57:56.530Z,5.13
2018-08-17T20:00:23.976Z,5.37
2018-08-17T20:02:52.126Z,6.20
2018-08-17T20:05:19.513Z,6.33
2018-08-17T20:07:46.891Z,6.43
2018-08-17T20:10:14.885Z,5.60
2018-08-17T20:12:42.875Z,5.47
2018-08-17T20:15:10.210Z,4.80
2018-08-17T20:17:38.209Z,5.27
2018-08-17T20:20:07.982Z,6.63
2018-08-17T20:22:35.438Z,6.40
2018-08-17T20:25:08.625Z,5.27
2018-08-17T20:27:35.870Z,5.60
2018-08-17T20:30:08.730Z,5.93
2018-08-17T20:32:35.944Z,5.93
2018-08-17T20:35:03.232Z,6.47
2018-08-17T20:37:30.532Z,5.23
2018-08-17T20:39:57.854Z,5.77
2018-08-17T20:42:25.151Z,5.83
2018-08-17T20:44:52.355Z,6.70
2018-08-17T20:47:19.614Z,5.57
2018-08-17T20:49:46.844Z,5.40
2018-08-17T20:52:14.061Z,5.33
2018-08-17T20:54:41.259Z,5.03
2018-08-17T20:57:08.511Z,5.77
2018-08-17T20:59:35.734Z,5.37
2018-08-17T21:02:03.128Z,5.70
2018-08-17T21:04:30.327Z,5.43
2018-08-17T21:06:57.603Z,5.70
2018-08-17T21:09:24.804Z,4.70
2018-08-17T21:11:52.032Z,5.87
2018-08-17T21:14:19.269Z,4.80
2018-08-17T21:16:46.542Z,5.50
2018-08-17T21:19:13.789Z,5.17
2018-08-17T21:21:41.097Z,4.60
2018-08-17T21:24:08.295Z,4.60
2018-08-17T21:26:35.546Z,5.10
2018-08-17T21:29:03.463Z,4.47
2018-08-17T21:31:30.824Z,5.13
2018-08-17T21:33:58.076Z,5.03
2018-08-17T21:36:25.322Z,5.50
2018-08-17T21:39:10.160Z,5.33
2018-08-17T21:41:38.593Z,4.60
2018-08-17T21:44:07.206Z,4.50
2018-08-17T21:46:34.478Z,4.00
2018-08-17T21:49:01.703Z,4.67
2018-08-17T21:51:33.083Z,4.80
2018-08-17T21:54:00.300Z,4.20
2018-08-17T21:56:27.514Z,4.43
2018-08-17T21:58:54.742Z,4.20
2018-08-17T22:01:21.962Z,4.37
2018-08-17T22:03:49.194Z,4.90
2018-08-17T22:06:16.407Z,4.50
2018-08-17T22:08:43.619Z,4.07
2018-08-17T22:11:11.497Z,3.80
2018-08-17T22:13:38.707Z,4.17
2018-08-17T22:16:06.007Z,4.33
2018-08-17T22:18:33.277Z,3.60
2018-08-17T22:21:00.498Z,3.77
2018-08-17T22:23:30.371Z,3.33
2018-08-17T22:25:57.632Z,3.70
2018-08-17T22:28:24.902Z,3.20
2018-08-17T22:30:52.144Z,3.50
2018-08-17T22:33:19.432Z,2.60
2018-08-17T22:35:46.662Z,2.80
2018-08-17T22:38:13.924Z,2.30
2018-08-17T22:40:41.125Z,2.20
2018-08-17T22:43:08.358Z,2.00
2018-08-17T22:45:35.562Z,2.63
2018-08-17T22:48:02.913Z,2.70
2018-08-17T22:50:30.140Z,3.30
2018-08-17T22:52:57.419Z,3.43
2018-08-17T22:55:24.622Z,3.20
2018-08-17T22:57:51.864Z,3.17
2018-08-17T23:00:24.030Z,3.77
2018-08-17T23:02:52.550Z,3.20
2018-08-17T23:05:24.307Z,3.40
2018-08-17T23:07:51.621Z,4.10
2018-08-17T23:10:20.893Z,2.87
2018-08-17T23:12:49.430Z,3.60
2018-08-17T23:15:16.732Z,3.33
2018-08-17T23:18:01.038Z,3.53
2018-08-17T23:20:33.810Z,3.47
2018-08-17T23:23:01.790Z,3.97
2018-08-17T23:25:29.229Z,3.07
2018-08-17T23:27:56.460Z,3.20
2018-08-17T23:30:23.737Z,3.50
2018-08-17T23:32:50.964Z,3.23
2018-08-17T23:35:18.196Z,3.40
2018-08-17T23:37:45.455Z,2.93
2018-08-17T23:40:12.705Z,3.37
2018-08-17T23:42:39.932Z,3.07
2018-08-17T23:45:09.947Z,3.33
2018-08-17T23:47:37.190Z,4.17
2018-08-17T23:50:05.302Z,2.93
2018-08-17T23:52:32.542Z,3.90
2018-08-17T23:54:59.783Z,3.67
2018-08-17T23:57:27.026Z,3.70
2018-08-17T23:59:55.403Z,2.90
